Time;durP1;ratioP1;P1;durP2;ratioP2;P2;SDS_P1;SDS_P2;PMS_P1;PMS_P2;Temp;Humidity;BMP_temperature;BMP_pressure;BME280_temperature;BME280_humidity;BME280_pressure;Samples;Min_cycle;Max_cycle;Signal;HPM_P1;HPM_P2
2022/10/23 00:01:35;;;;;;;17.00;11.30;;;;;;;;;;2336593;57;21030;-83
2022/10/23 00:04:03;;;;;;;20.95;11.98;;;;;;;;;;2336781;57;21085;-82
2022/10/23 00:06:31;;;;;;;21.83;11.23;;;;;;;;;;2581105;53;21050;-82
2022/10/23 00:08:58;;;;;;;22.60;12.02;;;;;;;;;;2581214;53;21065;-83
2022/10/23 00:11:27;;;;;;;17.05;11.30;;;;;;;;;;2336237;57;21025;-82
2022/10/23 00:13:55;;;;;;;17.90;10.70;;;;;;;;;;2336456;57;21041;-82
2022/10/23 00:16:22;;;;;;;17.50;9.13;;;;;;;;;;2581373;53;21045;-82
2022/10/23 00:18:49;;;;;;;17.23;10.20;;;;;;;;;;2581134;53;20990;-82
2022/10/23 00:21:17;;;;;;;22.80;11.75;;;;;;;;;;2336303;57;21080;-83
2022/10/23 00:23:44;;;;;;;17.20;11.15;;;;;;;;;;2580941;53;21095;-83
2022/10/23 00:26:14;;;;;;;17.35;11.57;;;;;;;;;;2581235;53;21014;-82
2022/10/23 00:28:41;;;;;;;19.27;11.35;;;;;;;;;;2336296;57;21093;-83
2022/10/23 00:31:08;;;;;;;19.85;11.82;;;;;;;;;;2580631;53;21060;-83
2022/10/23 00:33:36;;;;;;;24.98;12.32;;;;;;;;;;2580639;53;21132;-82
2022/10/23 00:36:04;;;;;;;21.02;12.50;;;;;;;;;;2581122;53;21072;-82
2022/10/23 00:38:31;;;;;;;20.73;13.27;;;;;;;;;;2580395;53;21025;-83
2022/10/23 00:40:58;;;;;;;18.23;12.40;;;;;;;;;;2336382;57;21045;-83
2022/10/23 00:43:27;;;;;;;20.98;13.23;;;;;;;;;;2336670;57;21033;-82
2022/10/23 00:45:54;;;;;;;22.15;11.93;;;;;;;;;;2580159;53;21093;-82
2022/10/23 00:48:21;;;;;;;18.65;11.07;;;;;;;;;;2336014;57;21108;-82
2022/10/23 00:50:49;;;;;;;16.40;11.32;;;;;;;;;;2336722;57;21037;-83
2022/10/23 00:53:16;;;;;;;18.65;12.07;;;;;;;;;;2578852;53;21033;-82
2022/10/23 00:55:45;;;;;;;20.90;12.40;;;;;;;;;;2577930;53;21105;-82
2022/10/23 00:58:12;;;;;;;15.52;11.43;;;;;;;;;;2577600;53;21081;-82
2022/10/23 01:00:44;;;;;;;17.23;11.40;;;;;;;;;;2580616;53;21100;-82
2022/10/23 01:03:11;;;;;;;14.35;10.10;;;;;;;;;;2336320;57;21093;-83
2022/10/23 01:05:42;;;;;;;18.62;12.23;;;;;;;;;;2581042;53;21065;-83
2022/10/23 01:08:13;;;;;;;21.25;14.48;;;;;;;;;;2581096;53;21032;-83
2022/10/23 01:10:42;;;;;;;28.62;17.35;;;;;;;;;;2580475;53;21191;-82
2022/10/23 01:13:13;;;;;;;26.37;15.63;;;;;;;;;;2336609;57;21057;-82
2022/10/23 01:15:43;;;;;;;29.73;18.60;;;;;;;;;;2580134;53;21033;-83
2022/10/23 01:20:50;;;;;;;23.70;14.48;;;;;;;;;;2354773;57;22553;-74
2022/10/23 01:23:33;;;;;;;25.35;15.27;;;;;;;;;;2346634;57;21026;-74
2022/10/23 01:26:08;;;;;;;33.20;16.40;;;;;;;;;;2346649;57;21572;-74
2022/10/23 01:28:41;;;;;;;23.83;16.30;;;;;;;;;;2345143;57;21057;-74
2022/10/23 01:31:09;;;;;;;39.83;19.73;;;;;;;;;;2345251;57;21034;-74
2022/10/23 01:33:39;;;;;;;30.58;15.95;;;;;;;;;;2345563;57;21549;-74
2022/10/23 01:36:09;;;;;;;22.23;15.55;;;;;;;;;;2345334;57;21082;-74
2022/10/23 01:41:17;;;;;;;26.83;14.35;;;;;;;;;;2569921;53;22076;-74
2022/10/23 01:43:46;;;;;;;21.23;14.77;;;;;;;;;;2318600;58;21099;-74
2022/10/23 01:46:15;;;;;;;30.85;17.00;;;;;;;;;;2317547;58;21115;-74
2022/10/23 01:48:43;;;;;;;28.45;15.43;;;;;;;;;;2317356;58;21156;-74
2022/10/23 01:51:11;;;;;;;24.50;14.95;;;;;;;;;;2317270;58;21594;-74
2022/10/23 01:53:40;;;;;;;25.27;13.93;;;;;;;;;;2316660;58;21065;-74
2022/10/23 01:56:09;;;;;;;22.55;15.00;;;;;;;;;;2317431;58;21661;-74
2022/10/23 01:58:36;;;;;;;32.92;15.70;;;;;;;;;;2317419;58;21036;-74
2022/10/23 02:01:05;;;;;;;19.83;13.73;;;;;;;;;;2562003;52;72196;-81
2022/10/23 02:03:33;;;;;;;23.08;14.77;;;;;;;;;;2381506;56;21134;-81
2022/10/23 02:06:00;;;;;;;24.48;13.65;;;;;;;;;;2635792;52;21519;-81
2022/10/23 02:08:27;;;;;;;28.15;15.50;;;;;;;;;;2635613;52;21034;-81
2022/10/23 02:10:56;;;;;;;17.65;11.80;;;;;;;;;;2632574;52;21035;-81
2022/10/23 02:13:25;;;;;;;51.85;15.82;;;;;;;;;;2633001;52;21007;-81
2022/10/23 02:15:57;;;;;;;21.42;14.87;;;;;;;;;;2379354;56;21518;-82
2022/10/23 02:18:30;;;;;;;27.85;15.50;;;;;;;;;;2631287;52;21034;-81
2022/10/23 02:20:59;;;;;;;24.67;15.63;;;;;;;;;;2633901;52;21039;-81
2022/10/23 02:23:29;;;;;;;22.13;14.95;;;;;;;;;;2634123;52;21034;-82
2022/10/23 02:25:59;;;;;;;23.50;14.63;;;;;;;;;;2634091;52;21619;-81
2022/10/23 02:28:30;;;;;;;20.42;13.45;;;;;;;;;;2634537;52;21026;-81
2022/10/23 02:30:59;;;;;;;20.40;13.57;;;;;;;;;;2633592;52;21038;-81
2022/10/23 02:33:27;;;;;;;22.17;15.10;;;;;;;;;;2380270;56;21011;-81
2022/10/23 02:35:54;;;;;;;20.05;13.68;;;;;;;;;;2380160;56;21138;-82
2022/10/23 02:38:29;;;;;;;30.80;15.20;;;;;;;;;;2634260;52;21026;-81
2022/10/23 02:40:57;;;;;;;26.65;13.30;;;;;;;;;;2633702;52;21028;-81
2022/10/23 02:43:28;;;;;;;19.25;12.07;;;;;;;;;;2633982;52;21046;-81
2022/10/23 02:45:59;;;;;;;20.70;13.50;;;;;;;;;;2634230;52;21625;-81
2022/10/23 02:48:29;;;;;;;17.65;12.13;;;;;;;;;;2380275;56;21022;-81
2022/10/23 02:50:59;;;;;;;20.77;13.02;;;;;;;;;;2633570;52;21713;-81
2022/10/23 02:53:29;;;;;;;37.30;15.80;;;;;;;;;;2632172;52;21023;-81
2022/10/23 02:55:59;;;;;;;23.87;13.50;;;;;;;;;;2632680;52;21066;-81
2022/10/23 02:58:29;;;;;;;25.67;14.13;;;;;;;;;;2378891;56;21047;-81
2022/10/23 03:00:59;;;;;;;24.27;15.25;;;;;;;;;;2632094;52;21523;-79
2022/10/23 03:03:28;;;;;;;37.05;17.45;;;;;;;;;;2632774;52;21409;-81
2022/10/23 03:05:55;;;;;;;31.62;16.42;;;;;;;;;;2378556;56;21046;-81
2022/10/23 03:08:23;;;;;;;31.25;16.17;;;;;;;;;;2633166;52;22142;-81
2022/10/23 03:10:51;;;;;;;26.02;16.33;;;;;;;;;;2632950;52;21114;-81
2022/10/23 03:13:18;;;;;;;19.70;13.52;;;;;;;;;;2633126;52;21074;-81
2022/10/23 03:15:45;;;;;;;26.05;13.98;;;;;;;;;;2378494;56;21007;-81
2022/10/23 03:18:12;;;;;;;23.62;13.98;;;;;;;;;;2632626;52;21139;-81
2022/10/23 03:20:39;;;;;;;28.33;16.83;;;;;;;;;;2632309;52;21055;-80
2022/10/23 03:23:06;;;;;;;23.23;15.32;;;;;;;;;;2632773;52;21126;-81
2022/10/23 03:25:33;;;;;;;27.90;17.70;;;;;;;;;;2632818;52;21047;-81
2022/10/23 03:28:00;;;;;;;27.42;17.05;;;;;;;;;;2633082;52;21034;-81
2022/10/23 03:30:27;;;;;;;22.60;14.95;;;;;;;;;;2632314;52;21567;-81
2022/10/23 03:32:54;;;;;;;21.02;12.65;;;;;;;;;;2378356;56;21094;-81
2022/10/23 03:37:56;;;;;;;25.65;17.58;;;;;;;;;;2335565;57;27774;-74
2022/10/23 03:40:23;;;;;;;20.30;14.40;;;;;;;;;;2346899;57;21241;-74
2022/10/23 03:42:50;;;;;;;18.92;13.10;;;;;;;;;;2347037;57;21046;-75
2022/10/23 03:45:17;;;;;;;20.48;13.35;;;;;;;;;;2606138;52;21682;-75
2022/10/23 03:47:44;;;;;;;23.50;13.62;;;;;;;;;;2373843;56;21044;-74
2022/10/23 03:50:12;;;;;;;19.48;13.52;;;;;;;;;;2627819;52;21029;-75
2022/10/23 03:52:39;;;;;;;15.30;11.63;;;;;;;;;;2374436;56;21043;-75
2022/10/23 03:55:07;;;;;;;21.65;12.65;;;;;;;;;;2374314;56;21659;-74
2022/10/23 03:57:34;;;;;;;19.02;11.95;;;;;;;;;;2375304;56;21550;-74
2022/10/23 04:00:02;;;;;;;16.50;11.27;;;;;;;;;;2375337;56;21020;-75
2022/10/23 04:02:29;;;;;;;19.55;12.82;;;;;;;;;;2627975;52;21530;-75
2022/10/23 04:04:56;;;;;;;19.92;12.02;;;;;;;;;;2374868;56;21044;-75
2022/10/23 04:07:23;;;;;;;23.27;11.98;;;;;;;;;;2375072;56;21546;-74
2022/10/23 04:09:50;;;;;;;20.00;12.37;;;;;;;;;;2375322;56;21296;-74
2022/10/23 04:12:17;;;;;;;18.17;12.13;;;;;;;;;;2374208;56;21565;-74
2022/10/23 04:14:44;;;;;;;19.25;11.25;;;;;;;;;;2374883;56;21044;-75
2022/10/23 04:17:11;;;;;;;19.95;12.00;;;;;;;;;;2374956;56;21060;-73
2022/10/23 04:19:38;;;;;;;18.05;10.43;;;;;;;;;;2628711;52;21099;-73
2022/10/23 04:22:05;;;;;;;16.50;10.93;;;;;;;;;;2628234;52;21047;-75
2022/10/23 04:24:32;;;;;;;15.15;11.12;;;;;;;;;;2374635;56;21119;-73
2022/10/23 04:26:59;;;;;;;17.77;11.60;;;;;;;;;;2374483;56;21087;-75
2022/10/23 04:29:30;;;;;;;15.63;10.30;;;;;;;;;;2374515;56;21064;-73
2022/10/23 04:31:57;;;;;;;14.35;10.63;;;;;;;;;;2374900;56;21515;-74
2022/10/23 04:34:24;;;;;;;17.37;10.27;;;;;;;;;;2375338;56;21067;-74
2022/10/23 04:36:51;;;;;;;14.18;9.27;;;;;;;;;;2375061;56;21123;-74
2022/10/23 04:39:18;;;;;;;16.62;8.70;;;;;;;;;;2374710;56;21028;-75
2022/10/23 04:41:45;;;;;;;15.38;9.65;;;;;;;;;;2373252;56;21654;-74
2022/10/23 04:44:12;;;;;;;13.18;8.50;;;;;;;;;;2374757;56;21047;-74
2022/10/23 04:46:39;;;;;;;15.38;8.95;;;;;;;;;;2374719;56;21118;-73
2022/10/23 04:49:06;;;;;;;13.40;8.80;;;;;;;;;;2374277;56;21582;-74
2022/10/23 04:51:33;;;;;;;11.90;9.32;;;;;;;;;;2373051;56;21095;-73
2022/10/23 04:54:00;;;;;;;10.90;7.95;;;;;;;;;;2625732;52;21091;-74
2022/10/23 04:56:27;;;;;;;13.48;7.97;;;;;;;;;;2626206;52;21594;-74
2022/10/23 04:58:54;;;;;;;12.40;8.88;;;;;;;;;;2374199;56;21064;-74
2022/10/23 05:01:21;;;;;;;13.27;8.75;;;;;;;;;;2623738;52;21530;-75
2022/10/23 05:03:48;;;;;;;12.48;7.37;;;;;;;;;;2625542;52;21118;-75
2022/10/23 05:06:15;;;;;;;12.63;8.07;;;;;;;;;;2373500;56;21051;-72
2022/10/23 05:08:42;;;;;;;13.32;9.07;;;;;;;;;;2373984;56;21080;-74
2022/10/23 05:11:09;;;;;;;10.98;8.43;;;;;;;;;;2373588;56;21044;-74
2022/10/23 05:13:36;;;;;;;8.43;6.53;;;;;;;;;;2373416;56;21044;-74
2022/10/23 05:16:03;;;;;;;12.77;8.48;;;;;;;;;;2373652;56;21645;-74
2022/10/23 05:18:32;;;;;;;11.07;7.53;;;;;;;;;;2374148;56;21614;-75
2022/10/23 05:21:01;;;;;;;11.82;7.75;;;;;;;;;;2373468;56;22320;-75
2022/10/23 05:23:29;;;;;;;12.23;8.00;;;;;;;;;;2373710;56;21075;-74
2022/10/23 05:25:56;;;;;;;12.05;7.78;;;;;;;;;;2373534;56;21056;-74
2022/10/23 05:28:23;;;;;;;14.85;8.75;;;;;;;;;;2372703;56;21114;-74
2022/10/23 05:30:50;;;;;;;12.30;8.75;;;;;;;;;;2372789;56;21064;-74
2022/10/23 05:33:17;;;;;;;12.23;7.93;;;;;;;;;;2373188;56;21736;-75
2022/10/23 05:35:44;;;;;;;17.58;9.35;;;;;;;;;;2373443;56;21071;-74
2022/10/23 05:38:12;;;;;;;11.63;8.27;;;;;;;;;;2373649;56;21569;-75
2022/10/23 05:40:39;;;;;;;13.85;9.60;;;;;;;;;;2373291;56;21039;-75
2022/10/23 05:43:06;;;;;;;10.55;7.05;;;;;;;;;;2374040;56;21527;-75
2022/10/23 05:45:33;;;;;;;12.98;8.93;;;;;;;;;;2373197;56;21040;-75
2022/10/23 05:48:00;;;;;;;12.30;8.38;;;;;;;;;;2373735;56;21593;-75
2022/10/23 05:50:27;;;;;;;14.18;8.90;;;;;;;;;;2626153;52;21036;-75
2022/10/23 05:52:54;;;;;;;11.00;8.10;;;;;;;;;;2372480;56;21052;-75
2022/10/23 05:55:21;;;;;;;17.80;9.25;;;;;;;;;;2373799;56;21040;-75
2022/10/23 05:57:48;;;;;;;13.25;8.30;;;;;;;;;;2627370;52;21063;-75
2022/10/23 06:00:15;;;;;;;11.25;8.38;;;;;;;;;;2374163;56;21040;-75
2022/10/23 06:02:42;;;;;;;14.52;8.25;;;;;;;;;;2625646;52;21236;-73
2022/10/23 06:05:09;;;;;;;11.57;6.70;;;;;;;;;;2373505;56;21084;-74
2022/10/23 06:07:36;;;;;;;12.27;8.00;;;;;;;;;;2374234;56;21059;-73
2022/10/23 06:10:04;;;;;;;13.75;8.60;;;;;;;;;;2373970;56;21345;-74
2022/10/23 06:12:32;;;;;;;12.88;8.23;;;;;;;;;;2373854;56;21545;-74
2022/10/23 06:14:59;;;;;;;13.23;8.40;;;;;;;;;;2373372;56;21190;-72
2022/10/23 06:17:27;;;;;;;11.50;7.32;;;;;;;;;;2372496;56;21035;-74
2022/10/23 06:19:59;;;;;;;11.30;7.78;;;;;;;;;;2373018;56;21060;-73
2022/10/23 06:22:26;;;;;;;14.67;8.20;;;;;;;;;;2373406;56;21027;-76
2022/10/23 06:24:53;;;;;;;11.48;7.35;;;;;;;;;;2626459;52;21546;-76
2022/10/23 06:27:20;;;;;;;11.52;6.57;;;;;;;;;;2373219;56;21140;-73
2022/10/23 06:29:47;;;;;;;13.50;7.82;;;;;;;;;;2372572;56;21056;-73
2022/10/23 06:32:18;;;;;;;10.98;7.68;;;;;;;;;;2371531;56;21040;-74
2022/10/23 06:34:45;;;;;;;9.32;7.03;;;;;;;;;;2373441;56;21150;-74
2022/10/23 06:37:12;;;;;;;11.50;7.97;;;;;;;;;;2372189;56;21373;-79
2022/10/23 06:39:39;;;;;;;12.48;8.52;;;;;;;;;;2373527;56;21115;-75
2022/10/23 06:42:06;;;;;;;8.45;6.55;;;;;;;;;;2373487;56;21051;-72
2022/10/23 06:44:33;;;;;;;10.52;7.00;;;;;;;;;;2373259;56;21507;-74
2022/10/23 06:47:01;;;;;;;11.63;7.50;;;;;;;;;;2374162;56;21039;-73
2022/10/23 06:49:28;;;;;;;13.88;7.50;;;;;;;;;;2372428;56;21601;-74
2022/10/23 06:51:55;;;;;;;11.55;7.32;;;;;;;;;;2372697;56;21115;-72
2022/10/23 06:54:22;;;;;;;11.27;6.50;;;;;;;;;;2373372;56;21048;-74
2022/10/23 06:56:49;;;;;;;10.02;7.75;;;;;;;;;;2373864;56;21032;-74
2022/10/23 06:59:16;;;;;;;13.07;6.30;;;;;;;;;;2373798;56;21044;-74
2022/10/23 07:01:43;;;;;;;9.88;7.20;;;;;;;;;;2374056;56;21040;-74
2022/10/23 07:04:12;;;;;;;14.90;7.95;;;;;;;;;;2626322;52;21052;-74
2022/10/23 07:06:39;;;;;;;12.13;7.22;;;;;;;;;;2372672;56;21095;-74
2022/10/23 07:09:06;;;;;;;10.80;7.47;;;;;;;;;;2372417;56;21115;-73
2022/10/23 07:11:33;;;;;;;10.80;6.72;;;;;;;;;;2371131;56;21024;-73
2022/10/23 07:14:00;;;;;;;12.63;7.47;;;;;;;;;;2372933;56;21036;-72
2022/10/23 07:16:27;;;;;;;14.23;7.68;;;;;;;;;;2372793;56;21702;-74
2022/10/23 07:18:58;;;;;;;14.32;7.85;;;;;;;;;;2373138;56;21048;-74
2022/10/23 07:21:25;;;;;;;11.27;6.93;;;;;;;;;;2372345;56;21550;-73
2022/10/23 07:23:52;;;;;;;9.77;6.18;;;;;;;;;;2372989;56;21048;-74
2022/10/23 07:26:19;;;;;;;10.38;6.45;;;;;;;;;;2372558;56;21574;-74
2022/10/23 07:28:49;;;;;;;9.43;5.72;;;;;;;;;;2371981;56;21044;-73
2022/10/23 07:31:16;;;;;;;9.63;6.45;;;;;;;;;;2373423;56;21129;-74
2022/10/23 07:33:43;;;;;;;9.85;6.68;;;;;;;;;;2373604;56;21027;-74
2022/10/23 07:36:10;;;;;;;11.48;7.25;;;;;;;;;;2373832;56;21561;-74
2022/10/23 07:38:37;;;;;;;8.68;6.45;;;;;;;;;;2374026;56;21135;-75
2022/10/23 07:41:04;;;;;;;9.90;5.97;;;;;;;;;;2372845;56;21036;-74
2022/10/23 07:43:32;;;;;;;9.10;6.07;;;;;;;;;;2372272;56;21116;-75
2022/10/23 07:45:59;;;;;;;11.35;6.55;;;;;;;;;;2372246;56;21155;-74
2022/10/23 07:48:27;;;;;;;12.02;6.93;;;;;;;;;;2623756;52;21792;-74
2022/10/23 07:50:54;;;;;;;8.60;6.22;;;;;;;;;;2369794;56;21408;-75
2022/10/23 07:53:23;;;;;;;6.68;5.18;;;;;;;;;;2372384;56;21112;-75
2022/10/23 07:55:53;;;;;;;8.63;5.45;;;;;;;;;;2372711;56;21499;-75
2022/10/23 07:58:20;;;;;;;8.68;5.70;;;;;;;;;;2372260;56;21115;-75
2022/10/23 08:00:51;;;;;;;9.85;6.50;;;;;;;;;;2624777;52;21052;-73
2022/10/23 08:03:19;;;;;;;10.32;5.95;;;;;;;;;;2372468;56;21613;-74
2022/10/23 08:05:46;;;;;;;10.27;5.62;;;;;;;;;;2372553;56;21053;-74
2022/10/23 08:08:13;;;;;;;9.23;5.50;;;;;;;;;;2372369;56;21139;-75
2022/10/23 08:10:40;;;;;;;11.48;6.72;;;;;;;;;;2372293;56;21661;-75
2022/10/23 08:13:08;;;;;;;8.48;5.62;;;;;;;;;;2372814;56;21063;-75
2022/10/23 08:15:35;;;;;;;7.45;5.70;;;;;;;;;;2371419;56;21746;-75
2022/10/23 08:18:02;;;;;;;8.48;5.97;;;;;;;;;;2371204;56;21107;-75
2022/10/23 08:20:30;;;;;;;9.95;5.65;;;;;;;;;;2372476;56;21578;-73
2022/10/23 08:22:57;;;;;;;8.68;5.43;;;;;;;;;;2372133;56;21099;-75
2022/10/23 08:25:24;;;;;;;9.05;5.50;;;;;;;;;;2370602;56;21056;-73
2022/10/23 08:27:51;;;;;;;13.38;5.47;;;;;;;;;;2370576;56;22113;-75
2022/10/23 08:30:18;;;;;;;7.57;5.65;;;;;;;;;;2370959;56;21051;-75
2022/10/23 08:32:45;;;;;;;11.12;5.80;;;;;;;;;;2369518;56;21095;-74
2022/10/23 08:35:12;;;;;;;9.00;5.72;;;;;;;;;;2622436;52;21606;-74
2022/10/23 08:37:39;;;;;;;6.10;4.78;;;;;;;;;;2370279;56;21052;-74
2022/10/23 08:40:07;;;;;;;10.07;5.32;;;;;;;;;;2370254;56;21048;-75
2022/10/23 08:42:36;;;;;;;9.45;5.93;;;;;;;;;;2622627;52;21064;-78
2022/10/23 08:47:41;;;;;;;9.70;6.37;;;;;;;;;;2332676;57;27794;-75
2022/10/23 08:50:12;;;;;;;8.45;4.97;;;;;;;;;;2343917;57;21053;-76
2022/10/23 08:52:44;;;;;;;8.48;4.47;;;;;;;;;;2343186;57;21096;-76
2022/10/23 08:55:15;;;;;;;8.70;5.20;;;;;;;;;;2600419;52;21354;-75
2022/10/23 08:57:48;;;;;;;5.37;4.20;;;;;;;;;;2624090;52;22329;-75
2022/10/23 09:00:17;;;;;;;6.95;4.55;;;;;;;;;;2371880;56;21435;-75
2022/10/23 09:02:45;;;;;;;8.90;4.15;;;;;;;;;;2369823;56;21086;-74
2022/10/23 09:05:15;;;;;;;10.05;5.20;;;;;;;;;;2623242;52;21038;-74
2022/10/23 09:07:47;;;;;;;7.60;4.53;;;;;;;;;;2371306;56;21653;-74
2022/10/23 09:10:22;;;;;;;9.25;4.97;;;;;;;;;;2370581;56;21114;-74
2022/10/23 09:12:49;;;;;;;7.75;4.12;;;;;;;;;;2623811;52;21154;-72
2022/10/23 09:15:20;;;;;;;6.12;4.03;;;;;;;;;;2370341;56;21102;-73
2022/10/23 09:17:53;;;;;;;7.90;4.32;;;;;;;;;;2371026;56;21122;-73
2022/10/23 09:20:22;;;;;;;6.50;3.92;;;;;;;;;;2368728;56;21668;-73
2022/10/23 09:22:50;;;;;;;7.78;3.78;;;;;;;;;;2369033;56;21027;-74
2022/10/23 09:25:19;;;;;;;6.47;3.40;;;;;;;;;;2623318;52;21613;-73
2022/10/23 09:27:51;;;;;;;6.32;3.87;;;;;;;;;;2370963;56;21046;-74
2022/10/23 09:30:25;;;;;;;7.90;4.00;;;;;;;;;;2371687;56;21444;-74
2022/10/23 09:32:52;;;;;;;6.95;3.78;;;;;;;;;;2370766;56;21385;-74
2022/10/23 09:35:23;;;;;;;5.97;3.72;;;;;;;;;;2370336;56;22234;-74
2022/10/23 09:37:52;;;;;;;12.02;4.20;;;;;;;;;;2624637;52;21121;-74
2022/10/23 09:40:21;;;;;;;9.25;4.07;;;;;;;;;;2370564;56;21349;-74
2022/10/23 09:42:55;;;;;;;6.55;4.07;;;;;;;;;;2370583;56;21513;-74
2022/10/23 09:45:23;;;;;;;6.30;3.90;;;;;;;;;;2370874;56;21066;-74
2022/10/23 09:47:50;;;;;;;6.28;3.58;;;;;;;;;;2370691;56;21071;-74
2022/10/23 09:50:20;;;;;;;5.10;3.60;;;;;;;;;;2623650;52;21047;-74
2022/10/23 09:52:49;;;;;;;6.12;3.75;;;;;;;;;;2623605;52;21047;-74
2022/10/23 09:55:20;;;;;;;7.75;3.25;;;;;;;;;;2623937;52;21505;-73
2022/10/23 09:57:47;;;;;;;6.85;3.25;;;;;;;;;;2370813;56;21109;-74
2022/10/23 10:00:17;;;;;;;5.35;3.47;;;;;;;;;;2370128;56;21106;-75
2022/10/23 10:02:56;;;;;;;6.97;3.40;;;;;;;;;;2367172;56;21074;-75
2022/10/23 10:05:25;;;;;;;7.18;3.80;;;;;;;;;;2370870;56;21047;-81
2022/10/23 10:07:57;;;;;;;5.18;3.08;;;;;;;;;;2371872;56;21078;-80
2022/10/23 10:10:25;;;;;;;6.87;3.42;;;;;;;;;;2626385;52;21553;-81
2022/10/23 10:12:55;;;;;;;8.60;3.75;;;;;;;;;;2624879;52;21103;-80
2022/10/23 10:15:26;;;;;;;9.55;3.53;;;;;;;;;;2623701;52;21197;-80
2022/10/23 10:17:58;;;;;;;8.05;3.28;;;;;;;;;;2623258;52;22173;-78
2022/10/23 10:20:35;;;;;;;7.25;3.25;;;;;;;;;;2371570;56;21640;-81
2022/10/23 10:23:05;;;;;;;4.78;3.08;;;;;;;;;;2623493;52;21193;-81
2022/10/23 10:25:36;;;;;;;5.18;3.33;;;;;;;;;;2372282;56;21030;-80
2022/10/23 10:28:10;;;;;;;5.35;3.20;;;;;;;;;;2372471;56;21023;-80
2022/10/23 10:30:42;;;;;;;6.10;3.40;;;;;;;;;;2368951;56;21063;-80
2022/10/23 10:36:01;;;;;;;10.30;3.35;;;;;;;;;;2370855;56;22089;-81
2022/10/23 10:41:29;;;;;;;5.90;3.30;;;;;;;;;;2378964;54;22149;-77
2022/10/23 10:44:03;;;;;;;4.65;3.20;;;;;;;;;;2317780;58;21134;-77
2022/10/23 10:46:33;;;;;;;11.52;4.43;;;;;;;;;;2317660;58;21070;-78
2022/10/23 10:49:01;;;;;;;7.43;3.65;;;;;;;;;;2557263;53;21110;-74
2022/10/23 10:51:30;;;;;;;7.60;3.42;;;;;;;;;;2289662;58;21157;-75
2022/10/23 10:54:14;;;;;;;6.12;2.87;;;;;;;;;;2290641;58;21085;-76
2022/10/23 10:56:42;;;;;;;11.10;3.33;;;;;;;;;;2526059;54;21065;-77
2022/10/23 10:59:14;;;;;;;8.57;3.15;;;;;;;;;;2292219;58;21129;-78
2022/10/23 11:01:42;;;;;;;7.50;3.30;;;;;;;;;;2527400;54;21048;-78
2022/10/23 11:04:12;;;;;;;6.82;4.03;;;;;;;;;;2526960;55;21053;-77
2022/10/23 11:06:41;;;;;;;5.43;3.03;;;;;;;;;;2292082;58;21061;-77
2022/10/23 11:09:16;;;;;;;7.35;3.83;;;;;;;;;;2527577;54;21553;-78
2022/10/23 11:11:43;;;;;;;4.70;3.12;;;;;;;;;;2291731;58;21639;-77
2022/10/23 11:14:15;;;;;;;7.80;3.03;;;;;;;;;;2526674;55;21648;-77
2022/10/23 11:16:45;;;;;;;5.28;2.72;;;;;;;;;;2527337;54;21041;-77
2022/10/23 11:19:15;;;;;;;3.62;2.67;;;;;;;;;;2291812;58;21061;-77
2022/10/23 11:21:44;;;;;;;5.10;2.60;;;;;;;;;;2527348;55;21113;-77
2022/10/23 11:24:30;;;;;;;7.10;2.95;;;;;;;;;;2291838;58;21054;-77
2022/10/23 11:27:03;;;;;;;6.93;2.70;;;;;;;;;;2293063;58;21057;-74
2022/10/23 11:29:42;;;;;;;6.75;2.60;;;;;;;;;;2292759;58;21057;-75
2022/10/23 11:32:20;;;;;;;11.30;3.20;;;;;;;;;;2291081;58;21053;-75
2022/10/23 11:35:07;;;;;;;7.18;2.60;;;;;;;;;;2527492;54;21033;-75
2022/10/23 11:37:34;;;;;;;8.85;3.10;;;;;;;;;;2291952;58;21105;-77
2022/10/23 11:40:04;;;;;;;8.15;2.83;;;;;;;;;;2290684;58;21100;-77
2022/10/23 11:42:32;;;;;;;6.65;2.60;;;;;;;;;;2291257;58;21129;-77
2022/10/23 11:44:59;;;;;;;6.28;2.70;;;;;;;;;;2291616;58;21041;-77
2022/10/23 11:47:28;;;;;;;5.18;2.80;;;;;;;;;;2290907;58;22413;-77
2022/10/23 11:50:24;;;;;;;4.60;2.65;;;;;;;;;;2291815;58;21112;-77
2022/10/23 11:53:09;;;;;;;4.00;2.67;;;;;;;;;;2261854;58;21061;-78
2022/10/23 11:55:37;;;;;;;5.12;2.80;;;;;;;;;;2525675;55;21052;-79
2022/10/23 11:58:19;;;;;;;8.38;3.10;;;;;;;;;;2525150;55;21064;-78
2022/10/23 12:00:58;;;;;;;6.15;2.97;;;;;;;;;;2292419;58;21057;-78
2022/10/23 12:03:28;;;;;;;8.10;2.30;;;;;;;;;;2526780;55;21077;-85
2022/10/23 12:06:00;;;;;;;9.75;3.30;;;;;;;;;;2293973;58;22208;-85
2022/10/23 12:08:29;;;;;;;5.20;2.25;;;;;;;;;;2294750;58;21625;-85
2022/10/23 12:10:56;;;;;;;6.93;2.85;;;;;;;;;;2530426;54;21093;-86
2022/10/23 12:13:32;;;;;;;7.75;3.45;;;;;;;;;;2530181;55;21081;-85
2022/10/23 12:15:59;;;;;;;5.28;2.35;;;;;;;;;;2530257;55;21069;-85
2022/10/23 12:18:26;;;;;;;7.95;2.90;;;;;;;;;;2293224;58;21196;-84
2022/10/23 12:20:54;;;;;;;4.43;2.50;;;;;;;;;;2292033;58;21077;-83
2022/10/23 12:23:29;;;;;;;5.12;2.50;;;;;;;;;;2292999;58;21201;-82
2022/10/23 12:26:04;;;;;;;3.53;2.53;;;;;;;;;;2292890;58;21149;-81
2022/10/23 12:28:34;;;;;;;10.07;2.83;;;;;;;;;;2528151;55;21069;-82
2022/10/23 12:31:05;;;;;;;7.75;2.97;;;;;;;;;;2291611;58;21065;-82
2022/10/23 12:33:36;;;;;;;4.07;2.33;;;;;;;;;;2292371;58;21594;-83
2022/10/23 12:36:10;;;;;;;3.95;2.03;;;;;;;;;;2292548;58;21097;-81
2022/10/23 12:38:36;;;;;;;;;;;;;;;;;;2530051;53;21069;-83
2022/10/23 12:41:10;;;;;;;4.20;2.20;;;;;;;;;;2292383;58;20080;-82
2022/10/23 12:43:37;;;;;;;5.45;2.62;;;;;;;;;;2526774;53;21116;-85
2022/10/23 12:46:16;;;;;;;5.30;3.00;;;;;;;;;;2291102;58;21097;-83
2022/10/23 12:48:48;;;;;;;8.10;3.17;;;;;;;;;;2292055;58;21106;-84
2022/10/23 12:51:20;;;;;;;11.93;3.10;;;;;;;;;;2522621;53;21097;-82
2022/10/23 12:53:49;;;;;;;5.65;2.50;;;;;;;;;;2290739;58;21132;-83
2022/10/23 12:56:17;;;;;;;5.07;2.40;;;;;;;;;;2530234;53;21038;-83
2022/10/23 12:58:48;;;;;;;5.95;3.05;;;;;;;;;;2531606;55;21592;-83
2022/10/23 13:01:23;;;;;;;7.78;2.95;;;;;;;;;;2293963;58;21117;-83
2022/10/23 13:03:50;;;;;;;6.97;3.03;;;;;;;;;;2531784;54;21057;-84
2022/10/23 13:06:17;;;;;;;5.72;2.40;;;;;;;;;;2295791;58;21097;-83
2022/10/23 13:08:46;;;;;;;4.57;2.72;;;;;;;;;;2294973;58;21052;-84
2022/10/23 13:11:15;;;;;;;4.12;2.92;;;;;;;;;;2529673;54;21149;-83
2022/10/23 13:13:42;;;;;;;8.82;3.25;;;;;;;;;;2530124;54;21073;-83
2022/10/23 13:16:16;;;;;;;5.68;2.80;;;;;;;;;;2530779;55;21064;-84
2022/10/23 13:18:44;;;;;;;5.07;2.75;;;;;;;;;;2295219;58;21061;-84
2022/10/23 13:21:16;;;;;;;6.15;2.90;;;;;;;;;;2529509;53;21041;-83
2022/10/23 13:23:43;;;;;;;3.87;2.65;;;;;;;;;;2530322;54;21077;-84
2022/10/23 13:26:23;;;;;;;5.82;2.78;;;;;;;;;;2530076;55;21114;-83
2022/10/23 13:28:51;;;;;;;7.68;3.15;;;;;;;;;;2294898;58;21085;-84
2022/10/23 13:31:29;;;;;;;10.02;3.28;;;;;;;;;;2294695;58;21057;-84
2022/10/23 13:34:17;;;;;;;3.70;2.65;;;;;;;;;;2295207;58;21061;-84
2022/10/23 13:36:53;;;;;;;6.60;2.60;;;;;;;;;;2531160;55;21069;-86
2022/10/23 13:39:23;;;;;;;6.35;2.83;;;;;;;;;;2530545;54;21152;-83
2022/10/23 13:41:50;;;;;;;10.60;3.60;;;;;;;;;;2294432;58;21049;-84
2022/10/23 13:44:19;;;;;;;5.22;2.42;;;;;;;;;;2293837;58;21077;-84
2022/10/23 13:46:47;;;;;;;4.45;2.42;;;;;;;;;;2528196;54;21644;-85
2022/10/23 13:49:14;;;;;;;7.25;2.37;;;;;;;;;;2529742;53;21104;-84
2022/10/23 13:51:42;;;;;;;8.90;2.65;;;;;;;;;;2529249;55;21100;-84
2022/10/23 13:54:13;;;;;;;6.85;2.50;;;;;;;;;;2528374;53;21097;-84
2022/10/23 13:56:40;;;;;;;6.85;2.50;;;;;;;;;;2529263;55;21080;-84
2022/10/23 13:59:08;;;;;;;5.95;2.25;;;;;;;;;;2292553;58;21097;-83
2022/10/23 14:01:35;;;;;;;4.35;2.42;;;;;;;;;;2292108;58;21153;-83
2022/10/23 14:04:03;;;;;;;7.87;2.75;;;;;;;;;;2294057;58;21124;-84
2022/10/23 14:06:30;;;;;;;7.78;2.45;;;;;;;;;;2530347;55;21081;-83
2022/10/23 14:08:57;;;;;;;4.87;2.30;;;;;;;;;;2296009;58;21097;-84
2022/10/23 14:11:24;;;;;;;3.92;2.10;;;;;;;;;;2294649;58;21073;-85
2022/10/23 14:13:51;;;;;;;6.68;2.53;;;;;;;;;;2531337;53;21077;-84
2022/10/23 14:16:20;;;;;;;4.65;2.47;;;;;;;;;;2530576;55;21617;-83
2022/10/23 14:18:47;;;;;;;6.53;2.85;;;;;;;;;;2530862;55;21065;-85
2022/10/23 14:21:15;;;;;;;8.73;2.95;;;;;;;;;;2530403;54;21065;-84
2022/10/23 14:23:42;;;;;;;5.35;2.90;;;;;;;;;;2294324;58;21073;-83
2022/10/23 14:26:10;;;;;;;8.15;2.20;;;;;;;;;;2530991;55;21046;-84
2022/10/23 14:28:37;;;;;;;8.07;2.55;;;;;;;;;;2530251;55;21076;-82
2022/10/23 14:31:05;;;;;;;4.95;2.47;;;;;;;;;;2294623;58;21162;-83
2022/10/23 14:33:32;;;;;;;10.90;3.00;;;;;;;;;;2294626;58;21065;-83
2022/10/23 14:35:59;;;;;;;4.35;2.30;;;;;;;;;;2528438;55;21596;-83
2022/10/23 14:38:26;;;;;;;8.13;2.42;;;;;;;;;;2525075;53;21117;-83
2022/10/23 14:40:53;;;;;;;8.38;2.97;;;;;;;;;;2291978;58;21088;-84
2022/10/23 14:43:20;;;;;;;9.00;3.00;;;;;;;;;;2293395;58;21128;-83
2022/10/23 14:45:47;;;;;;;4.53;2.22;;;;;;;;;;2293586;58;21065;-84
2022/10/23 14:48:13;;;;;;;7.15;2.58;;;;;;;;;;2529039;55;21093;-85
2022/10/23 14:50:44;;;;;;;6.93;2.85;;;;;;;;;;2293135;58;21088;-84
2022/10/23 14:53:11;;;;;;;6.87;2.17;;;;;;;;;;2527846;55;21053;-84
2022/10/23 14:55:38;;;;;;;6.20;2.87;;;;;;;;;;2291282;58;21141;-84
2022/10/23 14:58:05;;;;;;;8.35;2.35;;;;;;;;;;2528292;55;21121;-83
2022/10/23 15:00:32;;;;;;;7.12;2.80;;;;;;;;;;2291260;58;21157;-84